^^
B2 Weather Station Historical Data
Daily Summary for July 20, 2018 Units:  English    Metric   Both
Daily Weekly Monthly Yearly Custom
  High: Low: Average:
Temperature: 79.5 °F 68.1 °F 72.5 °F
Dew Point: 71.0 °F 64.9 °F 67.7 °F
Humidity: 93% 67% 85%
Wind Speed: 24.2mph 0.0mph 10.3mph
Wind Gust: 16.3mph - -
Wind- - SW
Pressure: 29.75 in 29.63 in -
Precipitation: 0.95 in    
Historical Graphs
 
 
Tabular Data for July 20, 2018
Time Temperature Dew Point Pressure Wind Wind Speed Wind Gust Humidity Rainfall Rate (Hourly) solar
00:19 73.4 °F 67.2 °F 29.75 in South 11.5 mph 5.9 mph 81% 0.00 in 0.00 W/m2
00:24 73.3 °F 67.1 °F 29.75 in SSE 11.5 mph 7.6 mph 81% 0.00 in 0.00 W/m2
00:29 73.3 °F 67.1 °F 29.75 in SSE 11.5 mph 7.1 mph 81% 0.00 in 0.00 W/m2
00:34 73.4 °F 66.9 °F 29.75 in South 11.5 mph 4.7 mph 80% 0.00 in 0.00 W/m2
00:39 73.6 °F 67.0 °F 29.75 in SSE 11.5 mph 6.8 mph 80% 0.00 in 0.00 W/m2
00:44 73.8 °F 66.9 °F 29.74 in SSE 11.5 mph 7.7 mph 79% 0.00 in 0.00 W/m2
00:49 73.9 °F 67.0 °F 29.74 in SSE 11.5 mph 5.6 mph 79% 0.00 in 0.00 W/m2
00:54 73.9 °F 67.0 °F 29.74 in SSE 11.5 mph 6.0 mph 79% 0.00 in 0.00 W/m2
00:58 73.9 °F 67.0 °F 29.74 in SSE 12.0 mph 5.4 mph 79% 0.00 in 0.00 W/m2
01:02 73.9 °F 67.0 °F 29.74 in North 11.5 mph 6.6 mph 79% 0.00 in 0.00 W/m2
01:09 73.9 °F 67.0 °F 29.74 in SSW 10.4 mph 6.1 mph 79% 0.00 in 0.00 W/m2
01:09 73.9 °F 67.0 °F 29.74 in SE 10.4 mph 6.0 mph 79% 0.00 in 0.00 W/m2
01:19 73.9 °F 67.0 °F 29.74 in SSE 11.5 mph 7.0 mph 79% 0.00 in 0.00 W/m2
01:22 73.9 °F 67.0 °F 29.74 in SSE 11.5 mph 5.1 mph 79% 0.00 in 0.00 W/m2
01:29 73.7 °F 66.8 °F 29.74 in South 9.2 mph 4.6 mph 79% 0.00 in 0.00 W/m2
01:30 73.7 °F 66.8 °F 29.74 in SE 9.2 mph 4.4 mph 79% 0.00 in 0.00 W/m2
01:39 73.4 °F 66.5 °F 29.73 in SSE 7.0 mph 3.8 mph 79% 0.00 in 0.00 W/m2
01:46 73.2 °F 66.7 °F 29.73 in SSE 7.0 mph 3.7 mph 80% 0.00 in 0.00 W/m2
01:51 72.9 °F 66.7 °F 29.73 in SSE 6.9 mph 3.8 mph 81% 0.00 in 0.00 W/m2
01:57 72.7 °F 66.5 °F 29.73 in SSE 6.9 mph 4.0 mph 81% 0.00 in 0.00 W/m2
03:19 71.6 °F 66.5 °F 29.71 in SSW 6.9 mph 3.7 mph 84% 0.00 in 0.00 W/m2
03:24 71.8 °F 66.7 °F 29.72 in SSW 6.9 mph 2.8 mph 84% 0.00 in 0.00 W/m2
03:33 71.8 °F 66.7 °F 29.72 in SSW 6.9 mph 2.7 mph 84% 0.00 in 0.00 W/m2
03:38 72.3 °F 66.8 °F 29.72 in SSW 5.8 mph 1.6 mph 83% 0.00 in 0.00 W/m2
03:43 72.5 °F 67.0 °F 29.71 in South 5.8 mph 1.9 mph 83% 0.00 in 0.00 W/m2
03:47 72.5 °F 67.0 °F 29.71 in SSW 5.8 mph 1.8 mph 83% 0.00 in 0.00 W/m2
03:54 72.5 °F 67.0 °F 29.71 in SSE 4.0 mph 1.7 mph 83% 0.00 in 0.00 W/m2
03:59 72.2 °F 67.1 °F 29.70 in SSE 4.0 mph 1.0 mph 84% 0.00 in 0.00 W/m2
04:17 71.4 °F 66.7 °F 29.70 in SSW 3.5 mph 0.8 mph 85% 0.00 in 0.00 W/m2
04:23 70.8 °F 66.7 °F 29.70 in South 3.5 mph   87% 0.00 in 0.00 W/m2
04:29 70.3 °F 66.2 °F 29.69 in SSW 1.0 mph   87% 0.00 in 0.00 W/m2
04:44 69.4 °F 66.0 °F 29.69 in SSE 3.0 mph 0.1 mph 89% 0.00 in 0.00 W/m2
04:48 69.2 °F 65.8 °F 29.68 in South 2.3 mph 0.3 mph 89% 0.00 in 0.00 W/m2
04:59 68.9 °F 65.8 °F 29.68 in South 2.3 mph 0.3 mph 90% 0.00 in 0.00 W/m2
05:07 68.8 °F 65.7 °F 29.68 in South 2.3 mph 0.3 mph 90% 0.00 in 0.00 W/m2
05:14 68.7 °F 65.6 °F 29.68 in South 2.3 mph 0.1 mph 90% 0.00 in 0.00 W/m2
05:19 68.6 °F 65.9 °F 29.68 in South 3.0 mph 0.3 mph 91% 0.00 in 0.00 W/m2
05:24 68.6 °F 65.9 °F 29.68 in SSW 2.3 mph 0.4 mph 91% 0.00 in 0.00 W/m2
05:28 68.6 °F 65.9 °F 29.68 in SSW 2.3 mph 0.4 mph 91% 0.00 in 0.00 W/m2
05:33 68.3 °F 65.6 °F 29.68 in South 2.3 mph   91% 0.00 in 0.00 W/m2
05:39 68.1 °F 65.4 °F 29.68 in South 1.2 mph   91% 0.00 in 0.00 W/m2
05:40 68.1 °F 65.4 °F 29.68 in South 1.2 mph   91% 0.00 in 0.00 W/m2
05:48 68.3 °F 65.3 °F 29.68 in South 1.2 mph   90% 0.00 in 5.00 W/m2
05:53 68.4 °F 65.4 °F 29.68 in South 2.0 mph   90% 0.00 in 7.00 W/m2
05:59 68.5 °F 65.1 °F 29.68 in Calm     89% 0.00 in 7.00 W/m2
06:03 68.5 °F 65.1 °F 29.68 in Calm     89% 0.00 in 9.00 W/m2
06:09 68.5 °F 65.1 °F 29.68 in Calm     89% 0.00 in 12.00 W/m2
06:17 68.6 °F 64.9 °F 29.68 in Calm     88% 0.00 in 32.00 W/m2
06:22 68.9 °F 65.2 °F 29.68 in Calm     88% 0.00 in 37.00 W/m2
06:24 69.0 °F 65.3 °F 29.68 in South 3.0 mph   88% 0.00 in 42.00 W/m2
06:34 69.7 °F 65.0 °F 29.68 in South 3.5 mph   85% 0.00 in 67.00 W/m2
06:39 70.1 °F 65.0 °F 29.68 in South 3.5 mph 0.3 mph 84% 0.00 in 79.00 W/m2
06:44 70.4 °F 65.3 °F 29.68 in South 3.5 mph 0.6 mph 84% 0.00 in 95.00 W/m2
06:57 71.3 °F 65.5 °F 29.69 in South 3.5 mph 1.4 mph 82% 0.00 in 139.00 W/m2
07:02 71.7 °F 65.9 °F 29.69 in SW 5.0 mph 1.4 mph 82% 0.00 in 153.00 W/m2
07:08 72.2 °F 66.0 °F 29.68 in SSW 3.5 mph 1.0 mph 81% 0.00 in 178.00 W/m2
07:10 72.3 °F 66.5 °F 29.69 in SSW 3.5 mph 1.0 mph 82% 0.00 in 183.00 W/m2
07:18 72.9 °F 66.7 °F 29.68 in South 3.5 mph 0.8 mph 81% 0.00 in 211.00 W/m2
07:24 73.1 °F 67.3 °F 29.68 in SW 5.8 mph 0.7 mph 82% 0.00 in 230.00 W/m2
07:24 73.1 °F 67.3 °F 29.68 in SSW 5.8 mph 0.8 mph 82% 0.00 in 230.00 W/m2
07:31 73.4 °F 67.2 °F 29.68 in SSW 11.0 mph 0.8 mph 81% 0.00 in 244.00 W/m2
07:35 73.7 °F 67.9 °F 29.68 in South 5.8 mph 0.9 mph 82% 0.00 in 260.00 W/m2
07:44 74.3 °F 68.4 °F 29.68 in SSW 9.0 mph 1.8 mph 82% 0.00 in 283.00 W/m2
07:49 74.7 °F 68.8 °F 29.68 in SSW 5.8 mph 2.8 mph 82% 0.00 in 306.00 W/m2
07:59 75.3 °F 69.4 °F 29.68 in SSW 9.2 mph 3.0 mph 82% 0.00 in 327.00 W/m2
08:26 76.0 °F 70.1 °F 29.67 in SSW 12.0 mph 2.8 mph 82% 0.00 in 336.00 W/m2
08:44 77.8 °F 70.8 °F 29.66 in SSE 9.2 mph 9.2 mph 79% 0.00 in 346.00 W/m2
08:49 78.0 °F 70.6 °F 29.66 in South 11.5 mph 5.5 mph 78% 0.00 in 466.00 W/m2
08:54 78.2 °F 70.4 °F 29.66 in South 8.1 mph 6.1 mph 77% 0.00 in 515.00 W/m2
08:59 78.1 °F 69.9 °F 29.66 in SW 11.5 mph 7.4 mph 76% 0.00 in 153.00 W/m2
09:04 77.9 °F 69.7 °F 29.66 in SW 13.8 mph 7.1 mph 76% 0.00 in 258.00 W/m2
09:09 78.0 °F 69.4 °F 29.65 in North 15.0 mph 6.4 mph 75% 0.00 in 617.00 W/m2
09:14 78.1 °F 69.1 °F 29.65 in WSW 18.4 mph 9.4 mph 74% 0.00 in 601.00 W/m2
09:19 78.2 °F 69.2 °F 29.64 in SW 12.7 mph 6.3 mph 74% 0.00 in 619.00 W/m2
09:24 78.7 °F 69.3 °F 29.64 in South 11.5 mph 5.8 mph 73% 0.00 in 624.00 W/m2
09:27 79.1 °F 69.3 °F 29.64 in North 13.8 mph 5.2 mph 72% 0.00 in 617.00 W/m2
09:39 79.5 °F 68.9 °F 29.64 in SSW 17.3 mph 5.2 mph 70% 0.00 in 779.00 W/m2
09:44 79.1 °F 68.1 °F 29.64 in SW 14.0 mph 7.3 mph 69% 0.00 in 763.00 W/m2
09:49 79.2 °F 67.3 °F 29.64 in SSW 15.0 mph 10.6 mph 67% 0.00 in 728.00 W/m2
09:54 78.8 °F 67.3 °F 29.64 in SSW 16.1 mph 6.6 mph 68% 0.00 in 842.00 W/m2
09:59 79.4 °F 67.9 °F 29.64 in SW 11.5 mph 8.0 mph 68% 0.00 in 420.00 W/m2
10:04 79.3 °F 67.4 °F 29.64 in WSW 16.1 mph 11.9 mph 67% 0.00 in 420.00 W/m2
10:09 79.0 °F 67.1 °F 29.64 in SW 19.6 mph 7.6 mph 67% 0.00 in 519.00 W/m2
10:14 78.7 °F 66.8 °F 29.64 in WSW 10.4 mph 7.4 mph 67% 0.00 in 186.00 W/m2
10:19 77.7 °F 66.7 °F 29.64 in SW 17.3 mph 11.2 mph 69% 0.00 in 174.00 W/m2
10:24 76.7 °F 67.0 °F 29.64 in North 16.1 mph 6.4 mph 72% 0.00 in 160.00 W/m2
10:29 76.0 °F 67.5 °F 29.64 in North 13.8 mph 4.1 mph 75% 0.00 in 54.00 W/m2
10:34 74.8 °F 67.8 °F 29.64 in WSW 15.0 mph 5.2 mph 79% 0.01 in 30.00 W/m2
10:39 73.0 °F 67.5 °F 29.65 in North 15.0 mph 9.8 mph 83% 0.04 in 11.00 W/m2
10:44 71.4 °F 67.3 °F 29.66 in WSW 15.0 mph 10.6 mph 87% 0.09 in 21.00 W/m2
10:49 69.4 °F 66.0 °F 29.66 in WSW 21.9 mph 12.3 mph 89% 0.31 in 23.00 W/m2
10:54 68.4 °F 65.7 °F 29.66 in North 17.3 mph 6.4 mph 91% 0.42 in 46.00 W/m2
10:59 68.1 °F 65.4 °F 29.66 in North 11.5 mph 4.9 mph 91% 0.43 in 100.00 W/m2
11:04 68.3 °F 65.9 °F 29.67 in WSW 11.0 mph 5.1 mph 92% 0.43 in 151.00 W/m2
11:09 68.5 °F 66.1 °F 29.67 in SW 11.5 mph 8.6 mph 92% 0.43 in 237.00 W/m2
11:14 68.8 °F 66.7 °F 29.66 in North 12.7 mph 6.1 mph 93% 0.43 in 265.00 W/m2
11:19 69.1 °F 67.0 °F 29.66 in SSW 6.9 mph 5.0 mph 93% 0.43 in 250.00 W/m2
11:24 69.2 °F 66.8 °F 29.66 in WSW 16.1 mph 4.8 mph 92% 0.43 in 237.00 W/m2
11:29 69.3 °F 66.9 °F 29.66 in WSW 19.6 mph 6.2 mph 92% 0.43 in 186.00 W/m2
11:34 69.6 °F 67.2 °F 29.66 in WSW 6.0 mph 3.5 mph 92% 0.42 in 214.00 W/m2
11:39 69.9 °F 67.5 °F 29.66 in WSW 3.5 mph 2.6 mph 92% 0.39 in 130.00 W/m2
11:44 69.9 °F 67.5 °F 29.66 in WSW 3.5 mph   92% 0.34 in 176.00 W/m2
11:49 70.1 °F 67.7 °F 29.66 in SW 10.4 mph 2.3 mph 92% 0.12 in 306.00 W/m2
11:54 70.9 °F 68.5 °F 29.67 in SW 8.1 mph 3.2 mph 92% 0.01 in 257.00 W/m2
11:59 71.0 °F 68.2 °F 29.66 in WSW 8.1 mph 4.1 mph 91% 0.00 in 155.00 W/m2
12:04 71.0 °F 68.2 °F 29.66 in WSW 4.6 mph 1.8 mph 91% 0.00 in 213.00 W/m2
12:09 71.1 °F 68.0 °F 29.66 in SW 15.0 mph 7.6 mph 90% 0.00 in 218.00 W/m2
12:14 71.5 °F 68.4 °F 29.66 in SW 6.9 mph 2.3 mph 90% 0.00 in 452.00 W/m2
12:19 72.1 °F 69.0 °F 29.66 in SW 3.5 mph 2.9 mph 90% 0.00 in 461.00 W/m2
12:24 72.4 °F 68.6 °F 29.66 in WSW 8.1 mph 5.0 mph 88% 0.00 in 237.00 W/m2
12:29 72.3 °F 68.2 °F 29.66 in SW 9.2 mph 2.4 mph 87% 0.00 in 248.00 W/m2
12:34 72.2 °F 67.8 °F 29.66 in SW 17.3 mph 8.3 mph 86% 0.00 in 234.00 W/m2
12:39 72.2 °F 68.1 °F 29.66 in SW 2.0 mph 8.0 mph 87% 0.00 in 234.00 W/m2
12:44 72.2 °F 68.1 °F 29.66 in WSW 11.5 mph 3.2 mph 87% 0.00 in 163.00 W/m2
12:49 72.1 °F 67.7 °F 29.66 in SSW 12.7 mph 4.0 mph 86% 0.00 in 230.00 W/m2
12:54 72.2 °F 67.8 °F 29.66 in WSW 8.1 mph 2.2 mph 86% 0.00 in 88.00 W/m2
12:59 72.2 °F 67.8 °F 29.66 in WSW 11.5 mph 8.4 mph 86% 0.00 in 120.00 W/m2
13:04 72.2 °F 68.1 °F 29.66 in WSW 5.8 mph 2.0 mph 87% 0.00 in 109.00 W/m2
13:09 72.2 °F 67.8 °F 29.66 in WSW 13.8 mph 4.1 mph 86% 0.00 in 69.00 W/m2
13:14 72.0 °F 67.6 °F 29.65 in West 16.1 mph 12.4 mph 86% 0.00 in 111.00 W/m2
13:19 71.6 °F 67.9 °F 29.65 in North 11.5 mph 5.1 mph 88% 0.00 in 83.00 W/m2
13:24 71.2 °F 67.5 °F 29.65 in WSW 19.6 mph 10.9 mph 88% 0.00 in 102.00 W/m2
13:29 71.2 °F 67.5 °F 29.65 in SW 11.5 mph 3.2 mph 88% 0.00 in 127.00 W/m2
13:34 71.2 °F 67.5 °F 29.65 in WSW 19.6 mph 8.5 mph 88% 0.00 in 185.00 W/m2
13:39 71.3 °F 67.6 °F 29.64 in North 11.5 mph 4.0 mph 88% 0.00 in 158.00 W/m2
13:44 71.5 °F 68.1 °F 29.64 in West 18.4 mph 7.8 mph 89% 0.00 in 288.00 W/m2
13:49 71.7 °F 68.3 °F 29.64 in SW 13.8 mph 6.7 mph 89% 0.00 in 429.00 W/m2
13:54 72.0 °F 68.6 °F 29.64 in North 11.5 mph 5.8 mph 89% 0.00 in 446.00 W/m2
13:59 72.7 °F 68.9 °F 29.64 in SW 16.1 mph 7.8 mph 88% 0.00 in 628.00 W/m2
14:04 73.5 °F 69.4 °F 29.64 in SW 12.7 mph 5.7 mph 87% 0.00 in 506.00 W/m2
14:09 74.0 °F 69.5 °F 29.64 in North 11.5 mph 7.3 mph 86% 0.00 in 464.00 W/m2
14:14 74.7 °F 69.9 °F 29.64 in SSW 13.0 mph 5.2 mph 85% 0.00 in 751.00 W/m2
14:19 74.5 °F 69.3 °F 29.63 in SSW 13.8 mph 4.0 mph 84% 0.00 in 401.00 W/m2
14:24 74.3 °F 69.1 °F 29.63 in WSW 13.0 mph 5.1 mph 84% 0.00 in 111.00 W/m2
14:29 74.3 °F 69.5 °F 29.63 in WSW 13.0 mph 9.0 mph 85% 0.00 in 111.00 W/m2
14:34 74.7 °F 69.5 °F 29.63 in WSW 12.7 mph 3.2 mph 84% 0.00 in 213.00 W/m2
14:39 74.2 °F 69.1 °F 29.64 in SW 11.5 mph 8.4 mph 84% 0.00 in 155.00 W/m2
14:44 73.5 °F 69.1 °F 29.63 in SW 18.0 mph 10.6 mph 86% 0.00 in 227.00 W/m2
14:49 73.3 °F 69.5 °F 29.63 in WSW 12.7 mph 4.0 mph 88% 0.01 in 450.00 W/m2
14:54 73.2 °F 69.4 °F 29.63 in West 17.3 mph 4.5 mph 88% 0.01 in 109.00 W/m2
14:59 73.1 °F 69.3 °F 29.64 in WNW 9.2 mph 8.8 mph 88% 0.01 in 156.00 W/m2
15:04 73.4 °F 69.6 °F 29.64 in WSW 12.7 mph 2.5 mph 88% 0.01 in 206.00 W/m2
15:09 73.5 °F 69.4 °F 29.64 in SW 12.0 mph 5.4 mph 87% 0.01 in 70.00 W/m2
15:14 73.3 °F 69.2 °F 29.64 in West 12.0 mph 6.6 mph 87% 0.01 in 185.00 W/m2
15:19 72.9 °F 69.1 °F 29.64 in WSW 8.1 mph 5.9 mph 88% 0.01 in 162.00 W/m2
15:24 72.6 °F 68.8 °F 29.64 in West 6.0 mph 3.7 mph 88% 0.01 in 137.00 W/m2
15:29 72.4 °F 68.6 °F 29.64 in West 7.0 mph 7.3 mph 88% 0.01 in 183.00 W/m2
15:34 72.4 °F 68.6 °F 29.64 in North 5.8 mph 2.9 mph 88% 0.01 in 225.00 W/m2
15:39 72.6 °F 68.5 °F 29.64 in WSW 11.5 mph 2.1 mph 87% 0.01 in 294.00 W/m2
15:44 73.0 °F 68.9 °F 29.64 in SW 5.8 mph 1.0 mph 87% 0.01 in 304.00 W/m2
15:49 73.4 °F 69.0 °F 29.64 in West 11.5 mph 6.0 mph 86% 0.00 in 185.00 W/m2
15:54 73.5 °F 69.1 °F 29.64 in WSW 5.8 mph 1.6 mph 86% 0.00 in 69.00 W/m2
15:59 73.2 °F 69.4 °F 29.64 in WSW 2.0 mph 2.0 mph 88% 0.00 in 54.00 W/m2
16:04 72.6 °F 69.2 °F 29.64 in SW 6.9 mph 3.6 mph 89% 0.01 in 47.00 W/m2
16:09 72.2 °F 69.1 °F 29.65 in SW 10.4 mph 2.4 mph 90% 0.05 in 40.00 W/m2
16:14 71.6 °F 68.5 °F 29.65 in SW 16.1 mph 8.9 mph 90% 0.15 in 25.00 W/m2
16:19 71.0 °F 68.2 °F 29.65 in West 15.0 mph 8.3 mph 91% 0.24 in 28.00 W/m2
16:24 70.8 °F 68.4 °F 29.65 in WSW 9.2 mph 1.7 mph 92% 0.25 in 40.00 W/m2
16:29 70.6 °F 68.2 °F 29.65 in WSW 12.0 mph 4.4 mph 92% 0.33 in 35.00 W/m2
16:34 70.4 °F 68.0 °F 29.65 in WSW 3.5 mph 1.1 mph 92% 0.47 in 39.00 W/m2
16:39 70.4 °F 68.3 °F 29.65 in West 3.5 mph   93% 0.50 in 135.00 W/m2
16:44 70.7 °F 68.6 °F 29.65 in West 9.2 mph 1.1 mph 93% 0.50 in 220.00 W/m2
16:49 71.2 °F 69.1 °F 29.65 in West 4.6 mph 2.5 mph 93% 0.51 in 352.00 W/m2
16:54 72.2 °F 70.1 °F 29.65 in West 3.5 mph 3.7 mph 93% 0.51 in 517.00 W/m2
16:59 72.9 °F 70.8 °F 29.65 in WSW 12.0 mph 6.2 mph 93% 0.51 in 494.00 W/m2
17:04 73.1 °F 71.0 °F 29.65 in West 11.5 mph 7.6 mph 93% 0.50 in 524.00 W/m2
17:09 73.5 °F 70.7 °F 29.65 in SW 17.3 mph 8.2 mph 91% 0.46 in 531.00 W/m2
17:14 73.9 °F 70.8 °F 29.65 in SW 11.5 mph 4.7 mph 90% 0.36 in 265.00 W/m2
17:19 73.9 °F 70.5 °F 29.65 in WSW 16.1 mph 7.5 mph 89% 0.27 in 174.00 W/m2
17:24 73.9 °F 69.8 °F 29.65 in WSW 15.0 mph 5.2 mph 87% 0.26 in 206.00 W/m2
17:29 74.0 °F 69.5 °F 29.65 in WSW 17.3 mph 7.3 mph 86% 0.18 in 234.00 W/m2
17:34 74.3 °F 69.5 °F 29.65 in West 15.0 mph 11.3 mph 85% 0.04 in 230.00 W/m2
17:39 74.3 °F 69.5 °F 29.65 in WSW 17.3 mph 12.3 mph 85% 0.01 in 206.00 W/m2
17:44 74.3 °F 68.8 °F 29.65 in SW 24.2 mph 14.0 mph 83% 0.01 in 230.00 W/m2
17:49 74.6 °F 68.7 °F 29.65 in West 16.1 mph 5.1 mph 82% 0.00 in 204.00 W/m2
17:54 74.8 °F 68.6 °F 29.65 in SW 19.6 mph 9.7 mph 81% 0.00 in 466.00 W/m2
17:59 75.0 °F 68.8 °F 29.65 in SW 19.6 mph 9.1 mph 81% 0.00 in 302.00 W/m2
18:04 75.0 °F 68.8 °F 29.65 in SW 18.4 mph 11.2 mph 81% 0.00 in 223.00 W/m2
18:09 74.8 °F 68.6 °F 29.65 in WSW 18.4 mph 16.3 mph 81% 0.00 in 141.00 W/m2
18:14 74.6 °F 68.4 °F 29.65 in West 16.1 mph 12.5 mph 81% 0.00 in 111.00 W/m2
18:19 74.8 °F 68.9 °F 29.65 in SW 13.8 mph 4.1 mph 82% 0.00 in 105.00 W/m2
18:24 74.7 °F 68.5 °F 29.65 in WSW 12.7 mph 8.2 mph 81% 0.00 in 51.00 W/m2
18:29 74.4 °F 68.5 °F 29.65 in West 11.5 mph 10.2 mph 82% 0.00 in 137.00 W/m2
18:34 74.3 °F 68.1 °F 29.65 in West 17.3 mph 9.5 mph 81% 0.00 in 151.00 W/m2
18:39 74.4 °F 68.5 °F 29.66 in WSW 11.5 mph 8.3 mph 82% 0.00 in 95.00 W/m2
18:44 74.4 °F 68.2 °F 29.66 in West 15.0 mph 8.9 mph 81% 0.00 in 77.00 W/m2
18:49 74.3 °F 68.4 °F 29.66 in SW 15.0 mph 1.9 mph 82% 0.00 in 223.00 W/m2
18:54 74.3 °F 68.1 °F 29.66 in WSW 13.8 mph 5.3 mph 81% 0.00 in 53.00 W/m2
18:59 74.1 °F 67.9 °F 29.66 in West 12.7 mph 10.5 mph 81% 0.00 in 84.00 W/m2
19:04 73.9 °F 68.1 °F 29.66 in WSW 15.0 mph 9.7 mph 82% 0.00 in 47.00 W/m2
19:09 73.8 °F 68.0 °F 29.66 in North 9.2 mph 4.7 mph 82% 0.00 in 51.00 W/m2
19:14 73.6 °F 67.8 °F 29.66 in WSW 15.0 mph 6.6 mph 82% 0.00 in 44.00 W/m2
19:19 73.5 °F 67.7 °F 29.66 in WSW 15.0 mph 5.2 mph 82% 0.00 in 86.00 W/m2
19:24 73.5 °F 67.7 °F 29.66 in West 12.7 mph 6.5 mph 82% 0.00 in 51.00 W/m2
19:29 73.4 °F 67.6 °F 29.65 in WSW 19.6 mph 8.7 mph 82% 0.00 in 30.00 W/m2
19:34 73.3 °F 67.5 °F 29.65 in North 5.8 mph 2.9 mph 82% 0.00 in 28.00 W/m2
19:39 73.2 °F 67.4 °F 29.65 in SW 13.8 mph 7.9 mph 82% 0.00 in 26.00 W/m2
19:44 73.0 °F 67.2 °F 29.66 in WNW 6.9 mph 0.3 mph 82% 0.00 in 26.00 W/m2
19:49 72.9 °F 67.4 °F 29.66 in WSW 6.0 mph 3.4 mph 83% 0.00 in 16.00 W/m2
19:54 72.8 °F 67.3 °F 29.66 in WNW 10.4 mph 3.1 mph 83% 0.00 in 12.00 W/m2
19:59 72.6 °F 67.1 °F 29.66 in WSW 11.5 mph 7.4 mph 83% 0.00 in 11.00 W/m2
20:04 72.4 °F 67.3 °F 29.66 in WSW 10.4 mph 4.1 mph 84% 0.00 in 11.00 W/m2
20:09 72.3 °F 67.2 °F 29.66 in West 11.5 mph 0.6 mph 84% 0.00 in 7.00 W/m2
20:14 72.1 °F 67.0 °F 29.66 in West 12.7 mph 6.1 mph 84% 0.00 in 0.00 W/m2
20:19 72.1 °F 67.0 °F 29.66 in WSW 11.5 mph 2.6 mph 84% 0.00 in 0.00 W/m2
20:24 72.0 °F 66.9 °F 29.66 in West 9.2 mph 0.5 mph 84% 0.00 in 0.00 W/m2
20:29 72.0 °F 67.2 °F 29.66 in WSW 3.5 mph 0.3 mph 85% 0.00 in 0.00 W/m2
20:34 71.9 °F 67.1 °F 29.66 in WNW 8.1 mph 2.6 mph 85% 0.00 in 0.00 W/m2
20:39 71.8 °F 67.0 °F 29.66 in West 10.4 mph 1.7 mph 85% 0.00 in 0.00 W/m2
20:44 71.7 °F 67.3 °F 29.66 in WSW 13.0 mph 4.3 mph 86% 0.00 in 0.00 W/m2
20:49 71.7 °F 67.3 °F 29.66 in West 11.5 mph 0.7 mph 86% 0.00 in 0.00 W/m2
20:54 71.7 °F 67.3 °F 29.66 in SW 11.0 mph 5.7 mph 86% 0.00 in 0.00 W/m2
20:59 71.7 °F 67.3 °F 29.66 in SW 11.5 mph 0.9 mph 86% 0.00 in 0.00 W/m2
21:04 71.7 °F 67.3 °F 29.66 in SW 13.8 mph 0.7 mph 86% 0.00 in 0.00 W/m2
21:09 71.7 °F 67.3 °F 29.66 in WSW 9.2 mph 1.8 mph 86% 0.00 in 0.00 W/m2
21:14 71.7 °F 67.3 °F 29.67 in SW 9.2 mph 1.8 mph 86% 0.00 in 0.00 W/m2
21:19 71.6 °F 67.2 °F 29.67 in WSW 14.0 mph 6.4 mph 86% 0.00 in 0.00 W/m2
21:24 71.6 °F 67.2 °F 29.66 in WSW 16.1 mph 5.8 mph 86% 0.00 in 0.00 W/m2
21:29 71.6 °F 67.2 °F 29.66 in SW 12.7 mph 3.0 mph 86% 0.00 in 0.00 W/m2
21:34 71.6 °F 67.2 °F 29.66 in WSW 11.5 mph 3.5 mph 86% 0.00 in 0.00 W/m2
21:39 71.6 °F 67.2 °F 29.67 in WSW 10.4 mph 1.4 mph 86% 0.00 in 0.00 W/m2
21:44 71.5 °F 67.1 °F 29.67 in West 12.7 mph 7.7 mph 86% 0.00 in 0.00 W/m2
21:49 71.5 °F 67.1 °F 29.67 in SSW 8.1 mph 2.3 mph 86% 0.00 in 0.00 W/m2
21:54 71.4 °F 67.0 °F 29.67 in SSW 11.5 mph 3.4 mph 86% 0.00 in 0.00 W/m2
21:59 71.4 °F 67.3 °F 29.66 in SW 10.4 mph 8.2 mph 87% 0.00 in 0.00 W/m2
22:04 71.1 °F 67.4 °F 29.66 in WSW 13.8 mph 4.1 mph 88% 0.00 in 0.00 W/m2
22:09 70.8 °F 67.1 °F 29.66 in WSW 9.2 mph 3.5 mph 88% 0.00 in 0.00 W/m2
22:14 70.7 °F 67.0 °F 29.66 in WSW 12.7 mph 7.7 mph 88% 0.00 in 0.00 W/m2
22:19 70.7 °F 67.0 °F 29.66 in SW 13.8 mph 7.8 mph 88% 0.00 in 0.00 W/m2
22:24 70.7 °F 67.0 °F 29.66 in SW 15.0 mph 9.8 mph 88% 0.00 in 0.00 W/m2
22:29 70.7 °F 67.0 °F 29.66 in SW 11.5 mph 6.6 mph 88% 0.00 in 0.00 W/m2
22:34 70.6 °F 67.2 °F 29.66 in WSW 12.7 mph 7.4 mph 89% 0.00 in 0.00 W/m2
22:39 70.6 °F 67.2 °F 29.65 in WNW 11.5 mph 6.7 mph 89% 0.00 in 0.00 W/m2
22:44 70.6 °F 67.2 °F 29.65 in WSW 8.0 mph 5.5 mph 89% 0.00 in 0.00 W/m2
22:49 70.6 °F 67.2 °F 29.66 in SW 11.5 mph 2.5 mph 89% 0.00 in 0.00 W/m2
22:54 70.7 °F 67.3 °F 29.66 in SW 9.2 mph 1.2 mph 89% 0.00 in 0.00 W/m2
22:59 70.7 °F 67.3 °F 29.66 in SW 5.0 mph 1.4 mph 89% 0.00 in 0.00 W/m2
23:04 70.7 °F 67.3 °F 29.66 in WSW 9.2 mph 3.2 mph 89% 0.00 in 0.00 W/m2
23:09 70.7 °F 67.0 °F 29.66 in WSW 10.4 mph 3.2 mph 88% 0.00 in 0.00 W/m2
23:14 70.7 °F 67.0 °F 29.66 in SW 6.9 mph 5.5 mph 88% 0.00 in 0.00 W/m2
23:19 70.8 °F 67.1 °F 29.66 in WSW 13.8 mph 2.8 mph 88% 0.00 in 0.00 W/m2
23:24 70.8 °F 67.1 °F 29.65 in West 9.2 mph 3.7 mph 88% 0.00 in 0.00 W/m2
23:29 70.8 °F 67.1 °F 29.66 in WSW 9.2 mph 6.4 mph 88% 0.00 in 0.00 W/m2
23:34 70.8 °F 67.1 °F 29.66 in SW 14.0 mph 4.7 mph 88% 0.00 in 0.00 W/m2
23:39 70.8 °F 67.1 °F 29.65 in WSW 3.5 mph 0.9 mph 88% 0.00 in 0.00 W/m2
23:44 70.7 °F 67.0 °F 29.65 in WSW 10.4 mph 6.1 mph 88% 0.00 in 0.00 W/m2
23:49 70.7 °F 67.0 °F 29.65 in WSW 8.1 mph 4.2 mph 88% 0.00 in 0.00 W/m2
23:54 70.7 °F 67.0 °F 29.65 in North 14.0 mph 6.2 mph 88% 0.00 in 0.00 W/m2
23:59 70.6 °F 66.9 °F 29.65 in SW 10.4 mph 4.6 mph 88% 0.00 in 0.00 W/m2
Bourbonnais, Illinois, USA
Compliments of Weather Underground - 4 mb